Lake City, MN (55041)

6:33 AM CDT on September 17, 2014 (GMT -0500)
APRSWXNET Lake City MN US | Change Station
CLOSE
Current Station
Personal Weather Station
Location: Lake City, MN
Elevation: 692 ft
Nearby Weather Stations

Elev 692 ft 44.45 °N, 92.27 °W | Updated 34 minutes ago

Overcast
Overcast
54 °F
Feels Like 54 °F
N
0
Wind Variable Wind from West
Gusts 3.0 mph

Today
High -- | Low -- °F
--% Chance of Precip.
Yesterday
High -- | Low -- °F
Precip. -- in
6:50 AM 7:15 PM
Last Quarter, 37% visible
Pressure 29.96 in
Visibility 10.0 miles
Clouds Mostly Cloudy 6000 ft
Mostly Cloudy 7000 ft
Overcast 9500 ft
Dew Point 48 °F
Humidity 81%
Rainfall 0.00 in
Snow Depth Not available.
UV 0 out of 12
Pollen 3.60 out of 12
Air Quality Not available.
Flu Activity Not available.
METAR KRGK 171115Z AUTO 00000KT 10SM BKN060 BKN070 OVC095 12/09 A2996 RMK AO2

More Conditions Fewer Conditions

Pressure 29.96 in
Visibility 10.0 miles
Clouds Mostly Cloudy 6000 ft
Mostly Cloudy 7000 ft
Overcast 9500 ft
Dew Point 48 °F
Humidity 81%
Rainfall 0.00 in
Snow Depth Not available.
UV 0 out of 12
Pollen 3.60 out of 12
Air Quality Not available.
Flu Activity Not available.
METAR KRGK 171115Z AUTO 00000KT 10SM BKN060 BKN070 OVC095 12/09 A2996 RMK AO2

More Conditions Fewer Conditions

10-Day Weather Forecast

Almanac

Astronomy

Sep. 17, 2014 Rise Set
Actual Time 6:50 AM CDT 7:15 PM CDT
Civil Twilight 6:21 AM CDT 7:44 PM CDT
Nautical Twilight 5:46 AM CDT 8:19 PM CDT
Astronomical Twilight 5:11 AM CDT 8:54 PM CDT
Moon 12:40 AM CDT 3:35 PM CDT
Length of Visible Light 13h 23m
Length of Day
12h 25m
Tomorrow will be 3m 4s shorter.
Last Quarter, 37% of the Moon is Illuminated
Today
Last Quarter
Sep 24
New
Oct 1
First Quarter
Oct 8
Full
Oct 15
Last Quarter

Today's Extremes

State Highs State Lows

Community

WunderPhotos

Upload Photos

1,754,003 photos uploaded!

Nearby

Snow Depth

Station Depth Elevation
No new snow has been reported.

Earthquake Activity

City Distance Mag. Time & Date
No recent earthquake activity has been reported nearby.
Minimum magnitude displayed is 2.5.

Coastal Water Temperatures

Place Temperature
No Stations Reporting

Nearby Weather Stations